createdAt,value
2022-11-17T00:00:39.471Z,10.00
2022-11-17T00:03:06.890Z,10.10
2022-11-17T00:05:35.992Z,10.10
2022-11-17T00:08:03.455Z,10.10
2022-11-17T00:10:30.964Z,10.10
2022-11-17T00:13:16.857Z,10.00
2022-11-17T00:15:44.661Z,10.00
2022-11-17T00:18:30.659Z,10.00
2022-11-17T00:21:16.507Z,10.10
2022-11-17T00:23:47.448Z,10.20
2022-11-17T00:26:17.405Z,10.00
2022-11-17T00:28:45.007Z,10.00
2022-11-17T00:31:32.367Z,10.10
2022-11-17T00:34:06.688Z,10.00
2022-11-17T00:36:36.111Z,10.10
2022-11-17T00:39:04.590Z,9.80
2022-11-17T00:41:32.398Z,9.70
2022-11-17T00:43:59.917Z,9.60
2022-11-17T00:46:27.400Z,9.70
2022-11-17T00:48:54.907Z,9.50
2022-11-17T00:51:22.759Z,9.60
2022-11-17T00:53:50.179Z,9.60
2022-11-17T00:56:18.036Z,9.50
2022-11-17T00:58:45.440Z,9.40
2022-11-17T01:01:13.064Z,9.30
2022-11-17T01:03:40.549Z,9.40
2022-11-17T01:06:13.899Z,9.20
2022-11-17T01:08:41.709Z,9.20
2022-11-17T01:11:17.681Z,9.20
2022-11-17T01:13:46.157Z,9.40
2022-11-17T01:16:18.536Z,9.30
2022-11-17T01:18:47.971Z,9.20
2022-11-17T01:21:16.720Z,9.30
2022-11-17T01:23:45.486Z,9.30
2022-11-17T01:26:24.852Z,9.30
2022-11-17T01:28:52.583Z,9.40
2022-11-17T01:31:22.892Z,9.50
2022-11-17T01:33:50.930Z,9.60
2022-11-17T01:36:30.199Z,9.50
2022-11-17T01:38:57.713Z,9.60
2022-11-17T01:41:27.786Z,9.70
2022-11-17T01:43:59.374Z,9.60
2022-11-17T01:46:38.475Z,9.80
2022-11-17T01:49:10.659Z,9.70
2022-11-17T01:51:42.386Z,9.80
2022-11-17T01:54:12.926Z,9.70
2022-11-17T01:56:43.345Z,9.60
2022-11-17T01:59:17.470Z,9.60
2022-11-17T02:01:57.247Z,9.60
2022-11-17T02:04:28.974Z,9.70
2022-11-17T02:07:15.657Z,9.50
2022-11-17T02:09:43.714Z,9.60
2022-11-17T02:12:13.667Z,9.60
2022-11-17T02:14:41.431Z,9.60
2022-11-17T02:17:13.980Z,9.70
2022-11-17T02:19:44.179Z,9.90
2022-11-17T02:22:23.368Z,10.00
2022-11-17T02:25:01.368Z,10.00
2022-11-17T02:27:49.729Z,10.10
2022-11-17T02:30:20.201Z,10.00
2022-11-17T02:33:04.759Z,10.10
2022-11-17T02:36:11.479Z,10.00
2022-11-17T02:38:50.457Z,10.00
2022-11-17T02:41:29.508Z,10.00
2022-11-17T02:44:14.396Z,10.00
2022-11-17T02:46:53.100Z,10.10
2022-11-17T02:49:31.479Z,10.20
2022-11-17T02:52:00.443Z,10.30
2022-11-17T02:54:30.706Z,10.20
2022-11-17T02:56:58.524Z,10.30
2022-11-17T02:59:34.153Z,10.20
2022-11-17T03:02:42.805Z,10.30
2022-11-17T03:06:07.095Z,10.20
2022-11-17T03:08:59.644Z,10.40
2022-11-17T03:11:42.031Z,10.30
2022-11-17T03:14:21.111Z,10.40
2022-11-17T03:17:10.686Z,10.40
2022-11-17T03:19:55.449Z,10.30
2022-11-17T03:22:24.960Z,10.40
2022-11-17T03:25:04.601Z,10.40
2022-11-17T03:27:38.519Z,10.40
2022-11-17T03:30:09.642Z,10.40
2022-11-17T03:32:40.913Z,10.40
2022-11-17T03:35:18.514Z,10.30
2022-11-17T03:37:51.224Z,10.40
2022-11-17T03:40:26.203Z,10.30
2022-11-17T03:42:57.349Z,10.50
2022-11-17T03:45:28.959Z,10.50
2022-11-17T03:48:15.990Z,10.40
2022-11-17T03:50:59.083Z,10.30
2022-11-17T03:53:26.758Z,10.40
2022-11-17T03:56:09.211Z,10.40
2022-11-17T03:58:50.484Z,10.50
2022-11-17T04:01:21.082Z,10.40
2022-11-17T04:03:48.794Z,10.50
2022-11-17T04:06:16.246Z,10.40
2022-11-17T04:08:44.019Z,10.50
2022-11-17T04:11:43.434Z,10.50
2022-11-17T04:14:29.560Z,10.60
2022-11-17T04:16:56.980Z,10.50
2022-11-17T04:19:24.404Z,10.40
2022-11-17T04:21:51.924Z,10.40
2022-11-17T04:24:19.427Z,10.50
2022-11-17T04:27:05.684Z,10.40
2022-11-17T04:29:34.253Z,10.50
2022-11-17T04:32:01.676Z,10.50
2022-11-17T04:34:29.129Z,10.40
2022-11-17T04:36:56.572Z,10.50
2022-11-17T04:39:23.994Z,10.50
2022-11-17T04:41:54.540Z,10.60
2022-11-17T04:44:24.474Z,10.50
2022-11-17T04:46:52.148Z,10.50
2022-11-17T04:49:20.947Z,10.60
2022-11-17T04:51:49.270Z,10.60
2022-11-17T04:54:19.025Z,10.50
2022-11-17T04:56:48.097Z,10.60
2022-11-17T04:59:15.619Z,10.60
2022-11-17T05:01:43.608Z,10.60
2022-11-17T05:04:13.281Z,10.50
2022-11-17T05:06:44.244Z,10.60
2022-11-17T05:09:14.113Z,10.60
2022-11-17T05:12:01.609Z,10.60
2022-11-17T05:14:29.731Z,10.60
2022-11-17T05:17:10.782Z,10.60
2022-11-17T05:19:44.354Z,10.60
2022-11-17T05:22:33.188Z,10.70
2022-11-17T05:25:00.687Z,10.60
2022-11-17T05:27:28.264Z,10.70
2022-11-17T05:29:55.790Z,10.70
2022-11-17T05:32:23.287Z,10.70
2022-11-17T05:34:50.758Z,10.60
2022-11-17T05:37:18.301Z,10.70
2022-11-17T05:39:45.763Z,10.70
2022-11-17T05:42:13.210Z,10.70
2022-11-17T05:44:40.632Z,10.70
2022-11-17T05:47:08.128Z,10.70
2022-11-17T05:49:35.560Z,10.60
2022-11-17T05:52:03.038Z,10.50
2022-11-17T05:54:30.439Z,10.50
2022-11-17T05:57:04.560Z,10.50
2022-11-17T05:59:54.951Z,10.50
2022-11-17T06:02:27.987Z,10.50
2022-11-17T06:04:55.585Z,10.50
2022-11-17T06:07:23.156Z,10.40
2022-11-17T06:09:52.183Z,10.40
2022-11-17T06:12:19.610Z,10.40
2022-11-17T06:14:47.066Z,10.50
2022-11-17T06:17:27.407Z,10.40
2022-11-17T06:20:02.716Z,10.50
2022-11-17T06:22:30.889Z,10.40
2022-11-17T06:24:58.859Z,10.30
2022-11-17T06:27:26.832Z,10.20
2022-11-17T06:29:55.812Z,10.10
2022-11-17T06:32:23.442Z,10.00
2022-11-17T06:34:55.823Z,9.90
2022-11-17T06:37:25.211Z,9.90
2022-11-17T06:39:53.032Z,9.80
2022-11-17T06:42:40.458Z,9.80
2022-11-17T06:45:08.531Z,9.90
2022-11-17T06:47:35.906Z,9.90
2022-11-17T06:50:04.043Z,10.00
2022-11-17T06:52:31.445Z,9.90
2022-11-17T06:54:59.028Z,9.90
2022-11-17T06:57:26.736Z,9.90
2022-11-17T06:59:54.242Z,10.00
2022-11-17T07:02:21.698Z,10.00
2022-11-17T07:04:49.228Z,10.00
2022-11-17T07:07:16.871Z,10.10
2022-11-17T07:09:44.450Z,10.00
2022-11-17T07:12:11.979Z,10.00
2022-11-17T07:14:39.440Z,10.00
2022-11-17T07:17:07.621Z,10.00
2022-11-17T07:19:35.160Z,10.10
2022-11-17T07:22:04.313Z,10.00
2022-11-17T07:24:31.872Z,10.10
2022-11-17T07:26:59.331Z,10.10
2022-11-17T07:29:28.936Z,10.10
2022-11-17T07:31:56.455Z,10.20
2022-11-17T07:34:23.925Z,10.10
2022-11-17T07:36:51.490Z,10.10
2022-11-17T07:39:21.728Z,10.10
2022-11-17T07:41:49.584Z,10.20
2022-11-17T07:44:17.038Z,10.10
2022-11-17T07:46:44.556Z,10.10
2022-11-17T07:49:12.082Z,10.10
2022-11-17T07:51:39.619Z,10.10
2022-11-17T07:54:07.176Z,10.10
2022-11-17T07:56:35.166Z,10.10
2022-11-17T07:59:02.633Z,10.10
2022-11-17T08:01:30.274Z,10.10
2022-11-17T08:03:58.611Z,10.10
2022-11-17T08:06:26.248Z,10.10
2022-11-17T08:08:54.509Z,10.10
2022-11-17T08:11:22.332Z,10.10
2022-11-17T08:13:50.931Z,10.10
2022-11-17T08:16:18.874Z,10.10
2022-11-17T08:18:52.068Z,10.00
2022-11-17T08:21:20.086Z,10.00
2022-11-17T08:23:52.154Z,10.00
2022-11-17T08:26:25.028Z,9.90
2022-11-17T08:28:58.101Z,9.90
2022-11-17T08:31:26.525Z,9.90
2022-11-17T08:33:54.072Z,9.80
2022-11-17T08:36:21.540Z,9.70
2022-11-17T08:38:49.060Z,9.80
2022-11-17T08:41:16.672Z,9.80
2022-11-17T08:43:44.150Z,9.80
2022-11-17T08:46:13.036Z,9.80
2022-11-17T08:48:40.755Z,9.90
2022-11-17T08:51:09.350Z,9.90
2022-11-17T08:53:36.941Z,10.00
2022-11-17T08:56:08.755Z,9.90
2022-11-17T08:58:43.818Z,9.90
2022-11-17T09:01:15.614Z,9.80
2022-11-17T09:03:45.110Z,9.90
2022-11-17T09:06:13.834Z,9.70
2022-11-17T09:08:46.242Z,9.70
2022-11-17T09:11:15.610Z,9.60
2022-11-17T09:13:43.381Z,9.50
2022-11-17T09:16:11.804Z,9.40
2022-11-17T09:18:40.110Z,9.40
2022-11-17T09:21:10.479Z,9.30
2022-11-17T09:23:38.372Z,9.20
2022-11-17T09:26:12.114Z,9.30
2022-11-17T09:28:40.652Z,9.20
2022-11-17T09:31:15.396Z,9.20
2022-11-17T09:33:43.561Z,9.20
2022-11-17T09:36:12.485Z,9.20
2022-11-17T09:38:40.858Z,9.30
2022-11-17T09:41:22.859Z,9.30
2022-11-17T09:44:03.101Z,9.30
2022-11-17T09:46:40.267Z,9.10
2022-11-17T09:49:22.983Z,9.20
2022-11-17T09:51:52.009Z,9.20
2022-11-17T09:54:30.334Z,9.20
2022-11-17T09:56:59.236Z,9.10
2022-11-17T09:59:29.117Z,9.00
2022-11-17T10:01:56.713Z,9.00
2022-11-17T10:04:29.162Z,9.10
2022-11-17T10:06:58.462Z,9.00
2022-11-17T10:09:41.456Z,9.00
2022-11-17T10:12:27.623Z,9.00
2022-11-17T10:14:55.710Z,9.00
2022-11-17T10:17:23.155Z,9.00
2022-11-17T10:19:50.768Z,9.20
2022-11-17T10:22:28.127Z,9.10
2022-11-17T10:24:57.874Z,9.10
2022-11-17T10:27:34.149Z,9.10
2022-11-17T10:30:09.876Z,9.00
2022-11-17T10:32:48.293Z,9.10
2022-11-17T10:35:28.348Z,9.10
2022-11-17T10:38:03.378Z,9.20
2022-11-17T10:40:32.137Z,9.20
2022-11-17T10:43:28.779Z,9.20
2022-11-17T10:46:05.275Z,9.20
2022-11-17T10:48:37.782Z,9.20
2022-11-17T10:51:26.985Z,9.20
2022-11-17T10:54:21.410Z,9.20
2022-11-17T10:56:52.374Z,9.30
2022-11-17T10:59:43.638Z,9.30
2022-11-17T11:02:30.894Z,9.20
2022-11-17T11:05:19.113Z,9.20
2022-11-17T11:07:46.759Z,9.20
2022-11-17T11:10:37.368Z,9.20
2022-11-17T11:13:19.991Z,9.20
2022-11-17T11:15:48.240Z,9.20
2022-11-17T11:18:20.172Z,9.20
2022-11-17T11:21:07.295Z,9.20
2022-11-17T11:24:02.996Z,9.10
2022-11-17T11:27:01.593Z,9.10
2022-11-17T11:29:54.436Z,9.10
2022-11-17T11:33:09.661Z,9.10
2022-11-17T11:35:52.030Z,9.00
2022-11-17T11:38:34.348Z,8.90
2022-11-17T11:41:27.130Z,9.00
2022-11-17T11:44:19.123Z,9.00
2022-11-17T11:47:03.820Z,8.90
2022-11-17T11:49:50.876Z,8.80
2022-11-17T11:52:22.538Z,8.70
2022-11-17T11:55:05.881Z,8.60
2022-11-17T11:57:40.305Z,8.50
2022-11-17T12:00:19.579Z,8.60
2022-11-17T12:03:02.963Z,8.50
2022-11-17T12:05:36.609Z,8.60
2022-11-17T12:08:11.215Z,8.50
2022-11-17T12:10:59.685Z,8.60
2022-11-17T12:13:27.679Z,8.60
2022-11-17T12:16:19.395Z,8.50
2022-11-17T12:18:46.881Z,8.50
2022-11-17T12:21:23.156Z,8.50
2022-11-17T12:24:21.108Z,8.30
2022-11-17T12:26:48.667Z,8.40
2022-11-17T12:29:27.665Z,8.30
2022-11-17T12:32:00.234Z,8.40
2022-11-17T12:34:33.697Z,8.30
2022-11-17T12:37:26.357Z,8.50
2022-11-17T12:40:04.985Z,8.50
2022-11-17T12:42:34.553Z,8.20
2022-11-17T12:45:04.283Z,8.50
2022-11-17T12:47:33.260Z,8.40
2022-11-17T12:50:00.818Z,8.40
2022-11-17T12:52:40.676Z,8.40
2022-11-17T12:55:31.727Z,8.30
2022-11-17T12:58:21.044Z,8.40
2022-11-17T13:01:04.861Z,8.10
2022-11-17T13:04:06.537Z,8.30
2022-11-17T13:06:35.871Z,8.40
2022-11-17T13:09:11.961Z,8.20
2022-11-17T13:11:39.744Z,8.30
2022-11-17T13:14:15.801Z,8.20
2022-11-17T13:16:50.991Z,8.10
2022-11-17T13:20:47.056Z,8.00
2022-11-17T13:23:34.092Z,8.30
2022-11-17T13:26:37.548Z,8.20
2022-11-17T13:29:13.412Z,8.20
2022-11-17T13:31:41.281Z,8.00
2022-11-17T13:34:18.446Z,8.00
2022-11-17T13:36:55.980Z,8.40
2022-11-17T13:39:27.472Z,8.30
2022-11-17T13:41:56.484Z,8.00
2022-11-17T13:45:01.636Z,8.10
2022-11-17T13:47:38.337Z,8.20
2022-11-17T13:50:34.471Z,8.40
2022-11-17T13:53:10.742Z,8.40
2022-11-17T13:55:45.248Z,8.30
2022-11-17T13:58:39.294Z,8.30
2022-11-17T14:01:11.066Z,8.20
2022-11-17T14:03:43.783Z,8.10
2022-11-17T14:06:13.311Z,8.10
2022-11-17T14:08:43.470Z,8.30
2022-11-17T14:11:10.931Z,8.00
2022-11-17T14:14:01.495Z,8.00
2022-11-17T14:16:40.254Z,8.20
2022-11-17T14:19:16.942Z,8.00
2022-11-17T14:22:13.229Z,8.00
2022-11-17T14:24:45.324Z,8.00
2022-11-17T14:27:35.187Z,8.30
2022-11-17T14:30:04.904Z,8.00
2022-11-17T14:32:32.499Z,8.20
2022-11-17T14:34:59.989Z,8.00
2022-11-17T14:37:30.192Z,7.90
2022-11-17T14:40:00.709Z,8.10
2022-11-17T14:42:33.020Z,8.10
2022-11-17T14:45:03.929Z,8.00
2022-11-17T14:47:31.402Z,7.80
2022-11-17T14:49:58.901Z,7.80
2022-11-17T14:52:26.315Z,7.90
2022-11-17T14:54:53.753Z,7.80
2022-11-17T14:57:21.173Z,7.70
2022-11-17T14:59:48.732Z,8.00
2022-11-17T15:02:16.163Z,7.80
2022-11-17T15:04:50.466Z,7.70
2022-11-17T15:07:18.449Z,7.80
2022-11-17T15:09:45.984Z,7.70
2022-11-17T15:12:13.491Z,8.00
2022-11-17T15:14:40.995Z,7.80
2022-11-17T15:17:13.867Z,7.90
2022-11-17T15:19:42.799Z,7.70
2022-11-17T15:22:10.329Z,7.70
2022-11-17T15:24:37.950Z,7.70
2022-11-17T15:27:05.596Z,8.00
2022-11-17T15:29:33.093Z,8.00
2022-11-17T15:32:00.803Z,7.90
2022-11-17T15:34:28.473Z,7.60
2022-11-17T15:36:56.080Z,7.60
2022-11-17T15:39:23.583Z,7.60
2022-11-17T15:41:51.766Z,7.60
2022-11-17T15:44:19.343Z,7.70
2022-11-17T15:46:47.796Z,7.60
2022-11-17T15:49:15.837Z,7.90
2022-11-17T15:51:43.514Z,7.80
2022-11-17T15:54:16.418Z,7.60
2022-11-17T15:56:47.684Z,7.70
2022-11-17T15:59:15.517Z,7.70
2022-11-17T16:01:44.012Z,7.80
2022-11-17T16:04:14.818Z,7.50
2022-11-17T16:06:43.801Z,7.90
2022-11-17T16:09:12.385Z,7.80
2022-11-17T16:11:40.565Z,7.60
2022-11-17T16:14:08.361Z,7.60
2022-11-17T16:16:38.070Z,7.80
2022-11-17T16:19:06.613Z,7.80
2022-11-17T16:21:34.290Z,7.60
2022-11-17T16:24:02.419Z,7.70
2022-11-17T16:26:30.794Z,7.60
2022-11-17T16:29:00.156Z,7.50
2022-11-17T16:31:30.048Z,7.60
2022-11-17T16:34:04.600Z,7.50
2022-11-17T16:36:36.733Z,7.70
2022-11-17T16:39:07.062Z,7.70
2022-11-17T16:41:37.070Z,8.00
2022-11-17T16:44:09.337Z,7.80
2022-11-17T16:46:37.289Z,7.70
2022-11-17T16:49:07.119Z,7.70
2022-11-17T16:51:34.913Z,7.90
2022-11-17T16:54:07.495Z,7.80
2022-11-17T16:56:35.227Z,8.00
2022-11-17T16:59:02.788Z,7.70
2022-11-17T17:01:32.549Z,8.00
2022-11-17T17:04:02.369Z,8.00
2022-11-17T17:06:30.256Z,7.70
2022-11-17T17:09:03.285Z,7.90
2022-11-17T17:11:32.468Z,7.90
2022-11-17T17:14:03.192Z,7.80
2022-11-17T17:16:32.835Z,8.00
2022-11-17T17:19:02.347Z,8.10
2022-11-17T17:21:30.628Z,8.20
2022-11-17T17:23:58.377Z,7.90
2022-11-17T17:26:27.832Z,7.80
2022-11-17T17:28:57.864Z,7.80
2022-11-17T17:31:26.804Z,8.00
2022-11-17T17:33:55.383Z,8.10
2022-11-17T17:36:25.121Z,7.90
2022-11-17T17:38:56.424Z,7.80
2022-11-17T17:41:26.146Z,8.00
2022-11-17T17:44:04.840Z,8.00
2022-11-17T17:46:35.436Z,7.80
2022-11-17T17:49:03.237Z,8.00
2022-11-17T17:51:31.141Z,8.10
2022-11-17T17:54:01.178Z,7.80
2022-11-17T17:56:30.708Z,7.90
2022-11-17T17:58:58.739Z,7.90
2022-11-17T18:01:31.071Z,8.10
2022-11-17T18:04:04.956Z,7.70
2022-11-17T18:06:38.000Z,8.00
2022-11-17T18:09:06.855Z,8.00
2022-11-17T18:11:35.677Z,8.00
2022-11-17T18:14:04.093Z,7.80
2022-11-17T18:16:33.320Z,8.00
2022-11-17T18:19:03.717Z,7.90
2022-11-17T18:21:31.540Z,8.00
2022-11-17T18:24:01.280Z,7.70
2022-11-17T18:26:31.795Z,7.80
2022-11-17T18:29:01.521Z,8.00
2022-11-17T18:31:31.888Z,7.70
2022-11-17T18:34:01.854Z,8.00
2022-11-17T18:36:30.693Z,8.00
2022-11-17T18:38:58.805Z,8.00
2022-11-17T18:41:27.451Z,8.00
2022-11-17T18:43:55.206Z,7.80
2022-11-17T18:46:25.760Z,7.80
2022-11-17T18:48:54.111Z,7.80
2022-11-17T18:51:24.153Z,8.00
2022-11-17T18:53:53.177Z,7.90
2022-11-17T18:56:23.866Z,7.70
2022-11-17T18:58:51.437Z,8.00
2022-11-17T19:01:20.009Z,7.70
2022-11-17T19:03:50.029Z,7.90
2022-11-17T19:06:18.881Z,7.80
2022-11-17T19:08:47.419Z,7.80
2022-11-17T19:11:16.461Z,7.90
2022-11-17T19:13:44.733Z,7.70
2022-11-17T19:16:19.974Z,7.90
2022-11-17T19:18:48.798Z,7.70
2022-11-17T19:21:20.581Z,7.60
2022-11-17T19:23:51.888Z,7.70
2022-11-17T19:26:25.116Z,7.70
2022-11-17T19:29:09.857Z,7.90
2022-11-17T19:31:40.377Z,7.80
2022-11-17T19:34:07.835Z,7.90
2022-11-17T19:36:35.519Z,7.70
2022-11-17T19:39:03.940Z,8.00
2022-11-17T19:41:34.235Z,8.00
2022-11-17T19:44:06.604Z,7.90
2022-11-17T19:46:36.325Z,7.90
2022-11-17T19:49:05.917Z,8.00
2022-11-17T19:51:38.687Z,7.90
2022-11-17T19:54:08.585Z,8.20
2022-11-17T19:56:36.210Z,7.70
2022-11-17T19:59:03.837Z,8.00
2022-11-17T20:01:33.059Z,8.10
2022-11-17T20:04:01.276Z,8.20
2022-11-17T20:06:34.018Z,8.20
2022-11-17T20:09:01.831Z,8.20
2022-11-17T20:11:29.387Z,8.00
2022-11-17T20:13:57.055Z,8.10
2022-11-17T20:16:26.765Z,7.90
2022-11-17T20:18:59.496Z,7.90
2022-11-17T20:21:28.539Z,8.20
2022-11-17T20:23:57.399Z,8.00
2022-11-17T20:26:27.355Z,8.20
2022-11-17T20:28:55.357Z,8.20
2022-11-17T20:31:24.846Z,8.00
2022-11-17T20:33:56.498Z,8.10
2022-11-17T20:36:24.492Z,8.00
2022-11-17T20:38:53.845Z,8.10
2022-11-17T20:41:23.436Z,8.20
2022-11-17T20:43:53.025Z,8.00
2022-11-17T20:46:21.255Z,8.00
2022-11-17T20:48:49.032Z,8.00
2022-11-17T20:51:19.276Z,8.00
2022-11-17T20:53:47.506Z,8.30
2022-11-17T20:56:16.385Z,8.00
2022-11-17T20:58:44.202Z,8.00
2022-11-17T21:01:12.985Z,8.00
2022-11-17T21:03:41.040Z,7.90
2022-11-17T21:06:08.795Z,8.30
2022-11-17T21:08:38.800Z,8.00
2022-11-17T21:11:32.205Z,8.10
2022-11-17T21:13:59.843Z,8.40
2022-11-17T21:16:27.357Z,8.30
2022-11-17T21:18:55.161Z,8.20
2022-11-17T21:21:22.648Z,8.20
2022-11-17T21:23:56.383Z,8.40
2022-11-17T21:26:24.292Z,8.30
2022-11-17T21:28:52.203Z,8.40
2022-11-17T21:31:25.119Z,8.10
2022-11-17T21:34:00.743Z,8.40
2022-11-17T21:36:30.761Z,8.30
2022-11-17T21:38:58.687Z,8.50
2022-11-17T21:41:31.033Z,8.30
2022-11-17T21:44:00.580Z,8.10
2022-11-17T21:46:31.169Z,8.30
2022-11-17T21:48:59.814Z,8.20
2022-11-17T21:51:29.974Z,8.20
2022-11-17T21:53:59.428Z,8.30
2022-11-17T21:56:28.145Z,8.40
2022-11-17T21:58:57.254Z,8.50
2022-11-17T22:01:25.119Z,8.50
2022-11-17T22:03:53.185Z,8.40
2022-11-17T22:06:23.298Z,8.20
2022-11-17T22:08:51.755Z,8.20
2022-11-17T22:11:36.895Z,8.10
2022-11-17T22:14:15.212Z,8.50
2022-11-17T22:16:47.688Z,8.50
2022-11-17T22:19:17.200Z,8.30
2022-11-17T22:21:46.923Z,8.20
2022-11-17T22:24:14.682Z,8.50
2022-11-17T22:26:43.590Z,8.30
2022-11-17T22:29:14.427Z,8.30
2022-11-17T22:31:42.656Z,8.30
2022-11-17T22:34:10.557Z,8.60
2022-11-17T22:36:38.143Z,8.50
2022-11-17T22:39:05.904Z,8.30
2022-11-17T22:41:33.590Z,8.40
2022-11-17T22:44:01.173Z,8.30
2022-11-17T22:46:29.125Z,8.60
2022-11-17T22:48:57.134Z,8.30
2022-11-17T22:51:43.729Z,8.70
2022-11-17T22:54:11.388Z,8.30
2022-11-17T22:56:39.295Z,8.20
2022-11-17T22:59:07.139Z,8.50
2022-11-17T23:01:34.604Z,8.50
2022-11-17T23:04:02.105Z,8.60
2022-11-17T23:06:29.634Z,8.20
2022-11-17T23:08:58.282Z,8.50
2022-11-17T23:11:42.132Z,8.20
2022-11-17T23:14:12.492Z,8.50
2022-11-17T23:16:40.219Z,8.60
2022-11-17T23:19:11.228Z,8.30
2022-11-17T23:21:38.778Z,8.40
2022-11-17T23:24:06.663Z,8.30
2022-11-17T23:26:34.131Z,8.60
2022-11-17T23:29:01.607Z,8.50
2022-11-17T23:31:29.143Z,8.40
2022-11-17T23:33:56.660Z,8.60
2022-11-17T23:36:24.767Z,8.30
2022-11-17T23:38:54.691Z,8.60
2022-11-17T23:41:22.352Z,8.70
2022-11-17T23:43:51.532Z,8.40
2022-11-17T23:46:21.311Z,8.30
2022-11-17T23:48:49.285Z,8.70
2022-11-17T23:51:20.571Z,8.50
2022-11-17T23:53:49.445Z,8.30
2022-11-17T23:56:18.996Z,8.70
2022-11-17T23:58:46.551Z,8.40
